createdAt,value
2018-09-28T00:00:54.149Z,99.90
2018-09-28T00:03:22.981Z,99.90
2018-09-28T00:05:51.742Z,99.90
2018-09-28T00:08:20.436Z,99.90
2018-09-28T00:10:49.243Z,99.90
2018-09-28T00:13:17.935Z,99.90
2018-09-28T00:15:51.822Z,99.90
2018-09-28T00:18:20.571Z,99.90
2018-09-28T00:20:49.290Z,99.90
2018-09-28T00:23:17.962Z,99.90
2018-09-28T00:25:46.883Z,99.90
2018-09-28T00:28:15.650Z,99.90
2018-09-28T00:30:44.362Z,99.90
2018-09-28T00:33:13.154Z,99.90
2018-09-28T00:35:41.799Z,99.90
2018-09-28T00:38:10.483Z,99.90
2018-09-28T00:40:39.174Z,99.90
2018-09-28T00:43:10.320Z,99.90
2018-09-28T00:45:39.008Z,99.90
2018-09-28T00:48:07.819Z,99.90
2018-09-28T00:50:36.573Z,99.90
2018-09-28T00:53:05.330Z,99.90
2018-09-28T00:55:34.207Z,99.90
2018-09-28T00:58:02.939Z,99.90
2018-09-28T01:00:31.730Z,99.90
2018-09-28T01:03:00.430Z,99.90
2018-09-28T01:05:29.198Z,99.90
2018-09-28T01:07:57.978Z,99.90
2018-09-28T01:10:26.669Z,99.90
2018-09-28T01:12:55.482Z,99.90
2018-09-28T01:15:24.238Z,99.90
2018-09-28T01:17:52.947Z,99.90
2018-09-28T01:20:21.679Z,99.90
2018-09-28T01:22:50.439Z,99.90
2018-09-28T01:25:19.270Z,99.90
2018-09-28T01:27:47.998Z,99.90
2018-09-28T01:30:16.751Z,99.90
2018-09-28T01:32:45.576Z,99.90
2018-09-28T01:35:14.376Z,99.90
2018-09-28T01:37:43.367Z,99.90
2018-09-28T01:40:12.039Z,99.90
2018-09-28T01:42:40.742Z,99.90
2018-09-28T01:45:09.421Z,99.90
2018-09-28T01:47:38.356Z,99.90
2018-09-28T01:50:07.123Z,99.90
2018-09-28T01:52:35.918Z,99.90
2018-09-28T01:55:04.698Z,99.90
2018-09-28T01:57:38.670Z,99.90
2018-09-28T02:00:07.412Z,99.90
2018-09-28T02:02:36.215Z,99.90
2018-09-28T02:05:05.011Z,99.90
2018-09-28T02:07:33.674Z,99.90
2018-09-28T02:10:02.327Z,99.90
2018-09-28T02:12:31.003Z,99.90
2018-09-28T02:14:59.674Z,99.90
2018-09-28T02:17:28.405Z,99.90
2018-09-28T02:19:57.402Z,99.90
2018-09-28T02:22:26.161Z,99.90
2018-09-28T02:24:54.819Z,99.90
2018-09-28T02:27:23.803Z,99.90
2018-09-28T02:29:52.594Z,99.90
2018-09-28T02:32:21.268Z,99.90
2018-09-28T02:34:49.962Z,99.90
2018-09-28T02:37:18.952Z,99.90
2018-09-28T02:39:47.710Z,99.90
2018-09-28T02:42:16.321Z,99.90
2018-09-28T02:44:44.995Z,99.90
2018-09-28T02:47:13.690Z,99.90
2018-09-28T02:49:42.394Z,99.90
2018-09-28T02:52:10.983Z,99.90
2018-09-28T02:54:39.675Z,99.90
2018-09-28T02:57:08.313Z,99.90
2018-09-28T02:59:37.003Z,99.90
2018-09-28T03:02:05.878Z,99.90
2018-09-28T03:04:34.614Z,99.90
2018-09-28T03:07:03.421Z,99.90
2018-09-28T03:09:32.139Z,99.90
2018-09-28T03:12:00.835Z,99.90
2018-09-28T03:14:29.622Z,99.90
2018-09-28T03:16:58.412Z,99.90
2018-09-28T03:19:27.174Z,99.90
2018-09-28T03:21:56.003Z,99.90
2018-09-28T03:24:24.720Z,99.90
2018-09-28T03:26:53.422Z,99.90
2018-09-28T03:29:22.194Z,99.90
2018-09-28T03:31:50.850Z,99.90
2018-09-28T03:34:19.609Z,99.90
2018-09-28T03:36:48.350Z,99.90
2018-09-28T03:39:17.124Z,99.90
2018-09-28T03:41:45.890Z,99.90
2018-09-28T03:44:14.552Z,99.90
2018-09-28T03:46:43.272Z,99.90
2018-09-28T03:49:11.962Z,99.90
2018-09-28T03:51:41.367Z,99.90
2018-09-28T03:54:10.136Z,99.90
2018-09-28T03:56:43.830Z,99.90
2018-09-28T03:59:12.502Z,99.90
2018-09-28T04:01:41.317Z,99.90
2018-09-28T04:04:10.022Z,99.90
2018-09-28T04:06:38.841Z,99.90
2018-09-28T04:09:09.050Z,99.90
2018-09-28T04:11:37.931Z,99.90
2018-09-28T04:14:06.760Z,99.90
2018-09-28T04:16:35.546Z,99.90
2018-09-28T04:19:04.222Z,99.90
2018-09-28T04:21:33.035Z,99.90
2018-09-28T04:24:01.754Z,99.90
2018-09-28T04:26:30.500Z,99.90
2018-09-28T04:28:59.170Z,99.90
2018-09-28T04:31:27.858Z,99.90
2018-09-28T04:33:56.599Z,99.90
2018-09-28T04:36:25.902Z,99.90
2018-09-28T04:38:54.568Z,99.90
2018-09-28T04:41:23.305Z,99.90
2018-09-28T04:43:51.974Z,99.90
2018-09-28T04:46:20.919Z,99.90
2018-09-28T04:48:49.790Z,99.90
2018-09-28T04:51:18.509Z,99.90
2018-09-28T04:53:47.230Z,99.90
2018-09-28T04:56:15.878Z,99.90
2018-09-28T04:58:44.590Z,99.90
2018-09-28T05:01:13.306Z,99.90
2018-09-28T05:03:41.950Z,99.90
2018-09-28T05:06:10.627Z,99.90
2018-09-28T05:08:39.385Z,99.90
2018-09-28T05:11:08.059Z,99.90
2018-09-28T05:13:36.763Z,99.90
2018-09-28T05:16:05.465Z,99.90
2018-09-28T05:18:34.475Z,99.90
2018-09-28T05:21:03.330Z,99.90
2018-09-28T05:23:32.156Z,99.90
2018-09-28T05:26:01.207Z,99.90
2018-09-28T05:28:30.012Z,99.90
2018-09-28T05:30:59.238Z,99.90
2018-09-28T05:33:28.062Z,99.90
2018-09-28T05:36:02.241Z,99.90
2018-09-28T05:38:30.927Z,99.90
2018-09-28T05:40:59.671Z,99.90
2018-09-28T05:43:28.341Z,99.90
2018-09-28T05:45:57.091Z,99.90
2018-09-28T05:48:25.743Z,99.90
2018-09-28T05:50:54.515Z,99.90
2018-09-28T05:53:23.599Z,99.90
2018-09-28T05:55:52.345Z,99.90
2018-09-28T05:58:26.237Z,99.90
2018-09-28T06:01:00.348Z,99.90
2018-09-28T06:03:29.143Z,99.90
2018-09-28T06:06:00.135Z,99.90
2018-09-28T06:08:28.891Z,99.90
2018-09-28T06:10:57.725Z,99.90
2018-09-28T06:13:26.671Z,99.90
2018-09-28T06:15:55.290Z,99.90
2018-09-28T06:18:24.110Z,99.90
2018-09-28T06:20:52.801Z,99.90
2018-09-28T06:23:21.469Z,99.90
2018-09-28T06:25:50.543Z,99.90
2018-09-28T06:28:19.263Z,99.90
2018-09-28T06:30:47.934Z,99.90
2018-09-28T06:33:16.734Z,99.90
2018-09-28T06:35:45.634Z,99.90
2018-09-28T06:38:14.266Z,99.90
2018-09-28T06:40:43.079Z,99.90
2018-09-28T06:43:11.811Z,99.90
2018-09-28T06:45:40.474Z,99.90
2018-09-28T06:48:09.356Z,99.90
2018-09-28T06:50:38.234Z,99.90
2018-09-28T06:53:07.025Z,99.90
2018-09-28T06:55:35.850Z,99.90
2018-09-28T06:58:04.579Z,99.90
2018-09-28T07:00:33.290Z,99.90
2018-09-28T07:03:02.058Z,99.90
2018-09-28T07:05:30.757Z,99.90
2018-09-28T07:07:59.545Z,99.90
2018-09-28T07:10:28.287Z,99.90
2018-09-28T07:12:57.386Z,99.90
2018-09-28T07:15:26.150Z,99.90
2018-09-28T07:17:55.047Z,99.90
2018-09-28T07:20:23.759Z,99.90
2018-09-28T07:22:52.579Z,99.90
2018-09-28T07:25:21.685Z,99.90
2018-09-28T07:27:50.774Z,99.90
2018-09-28T07:30:19.654Z,99.90
2018-09-28T07:32:48.420Z,99.90
2018-09-28T07:35:17.124Z,99.90
2018-09-28T07:37:51.076Z,99.90
2018-09-28T07:40:20.008Z,99.90
2018-09-28T07:42:48.715Z,99.90
2018-09-28T07:45:17.437Z,99.90
2018-09-28T07:47:46.260Z,99.90
2018-09-28T07:50:15.081Z,99.90
2018-09-28T07:52:43.806Z,99.90
2018-09-28T07:55:12.565Z,99.90
2018-09-28T07:57:41.358Z,99.90
2018-09-28T08:00:10.245Z,99.90
2018-09-28T08:02:38.974Z,99.90
2018-09-28T08:05:07.988Z,99.90
2018-09-28T08:07:36.790Z,99.90
2018-09-28T08:10:05.818Z,99.90
2018-09-28T08:12:34.447Z,99.90
2018-09-28T08:15:03.276Z,99.90
2018-09-28T08:17:31.983Z,99.90
2018-09-28T08:20:01.811Z,99.90
2018-09-28T08:22:30.620Z,99.90
2018-09-28T08:24:59.403Z,99.90
2018-09-28T08:27:28.272Z,99.90
2018-09-28T08:29:57.551Z,99.90
2018-09-28T08:32:26.275Z,99.90
2018-09-28T08:34:55.186Z,99.90
2018-09-28T08:37:23.959Z,99.90
2018-09-28T08:39:52.689Z,99.90
2018-09-28T08:42:21.404Z,99.90
2018-09-28T08:44:50.050Z,99.90
2018-09-28T08:47:18.706Z,99.90
2018-09-28T08:49:47.415Z,99.90
2018-09-28T08:52:16.099Z,99.90
2018-09-28T08:54:44.924Z,99.90
2018-09-28T08:57:17.563Z,99.90
2018-09-28T08:59:46.519Z,99.90
2018-09-28T09:02:18.771Z,99.90
2018-09-28T09:04:47.435Z,99.90
2018-09-28T09:07:16.178Z,99.90
2018-09-28T09:09:45.660Z,99.90
2018-09-28T09:12:14.387Z,99.90
2018-09-28T09:14:44.819Z,99.90
2018-09-28T09:17:18.592Z,99.90
2018-09-28T09:19:47.336Z,99.90
2018-09-28T09:22:16.149Z,99.90
2018-09-28T09:24:44.883Z,99.90
2018-09-28T09:27:13.595Z,99.30
2018-09-28T09:29:45.831Z,99.30
2018-09-28T09:32:14.528Z,99.60
2018-09-28T09:34:43.147Z,98.00
2018-09-28T09:37:12.399Z,96.50
2018-09-28T09:39:41.234Z,96.40
2018-09-28T09:42:10.154Z,96.00
2018-09-28T09:44:41.084Z,95.90
2018-09-28T09:47:19.288Z,95.40
2018-09-28T09:49:48.084Z,94.80
2018-09-28T09:52:16.751Z,94.40
2018-09-28T09:54:45.509Z,94.10
2018-09-28T09:57:14.147Z,94.10
2018-09-28T09:59:42.870Z,94.30
2018-09-28T10:02:16.791Z,94.90
2018-09-28T10:04:45.476Z,95.40
2018-09-28T10:07:14.162Z,95.80
2018-09-28T10:09:42.921Z,95.00
2018-09-28T10:12:11.526Z,94.30
2018-09-28T10:14:40.214Z,94.40
2018-09-28T10:17:09.021Z,94.00
2018-09-28T10:19:37.781Z,94.10
2018-09-28T10:22:06.778Z,93.30
2018-09-28T10:24:35.643Z,93.30
2018-09-28T10:27:04.219Z,92.80
2018-09-28T10:29:32.851Z,93.20
2018-09-28T10:32:01.506Z,92.00
2018-09-28T10:34:30.313Z,91.50
2018-09-28T10:36:59.889Z,91.10
2018-09-28T10:39:28.676Z,91.40
2018-09-28T10:41:57.406Z,91.40
2018-09-28T10:44:26.144Z,90.90
2018-09-28T10:46:54.834Z,90.60
2018-09-28T10:49:23.642Z,91.20
2018-09-28T10:51:52.464Z,90.50
2018-09-28T10:54:21.075Z,89.20
2018-09-28T10:56:49.751Z,90.10
2018-09-28T10:59:18.350Z,87.90
2018-09-28T11:01:47.124Z,88.20
2018-09-28T11:04:15.927Z,88.30
2018-09-28T11:06:44.686Z,86.20
2018-09-28T11:09:13.628Z,86.70
2018-09-28T11:11:42.627Z,86.60
2018-09-28T11:14:11.325Z,87.70
2018-09-28T11:16:40.523Z,87.30
2018-09-28T11:19:09.291Z,86.90
2018-09-28T11:21:37.997Z,87.70
2018-09-28T11:24:06.759Z,87.20
2018-09-28T11:26:35.458Z,86.50
2018-09-28T11:29:04.186Z,87.70
2018-09-28T11:31:34.823Z,86.90
2018-09-28T11:34:03.615Z,87.50
2018-09-28T11:36:32.303Z,86.70
2018-09-28T11:39:01.267Z,86.30
2018-09-28T11:41:29.978Z,86.70
2018-09-28T11:44:11.039Z,85.60
2018-09-28T11:46:39.790Z,86.70
2018-09-28T11:49:08.688Z,91.30
2018-09-28T11:51:37.289Z,90.90
2018-09-28T11:54:05.936Z,91.50
2018-09-28T11:56:34.710Z,90.80
2018-09-28T11:59:03.600Z,87.50
2018-09-28T12:01:32.270Z,87.20
2018-09-28T12:04:00.977Z,86.50
2018-09-28T12:06:29.959Z,86.00
2018-09-28T12:08:58.674Z,87.20
2018-09-28T12:11:27.408Z,86.80
2018-09-28T12:13:58.280Z,86.90
2018-09-28T12:16:27.326Z,86.70
2018-09-28T12:18:56.067Z,87.40
2018-09-28T12:21:24.895Z,87.60
2018-09-28T12:23:53.512Z,86.50
2018-09-28T12:26:22.282Z,85.60
2018-09-28T12:28:50.914Z,84.50
2018-09-28T12:31:19.563Z,85.00
2018-09-28T12:33:48.490Z,83.30
2018-09-28T12:36:17.086Z,84.80
2018-09-28T12:38:45.838Z,85.30
2018-09-28T12:41:14.462Z,85.00
2018-09-28T12:43:43.250Z,84.50
2018-09-28T12:46:11.910Z,84.00
2018-09-28T12:48:40.593Z,83.30
2018-09-28T12:51:09.447Z,83.30
2018-09-28T12:53:38.164Z,82.00
2018-09-28T12:56:06.986Z,82.90
2018-09-28T12:58:36.127Z,83.60
2018-09-28T13:01:05.017Z,82.20
2018-09-28T13:03:33.613Z,81.60
2018-09-28T13:06:02.283Z,82.30
2018-09-28T13:08:31.059Z,83.00
2018-09-28T13:10:59.806Z,81.30
2018-09-28T13:13:28.556Z,81.90
2018-09-28T13:15:57.339Z,82.30
2018-09-28T13:18:26.050Z,82.10
2018-09-28T13:20:54.738Z,81.10
2018-09-28T13:23:23.420Z,83.30
2018-09-28T13:25:52.230Z,82.10
2018-09-28T13:28:20.948Z,81.50
2018-09-28T13:30:49.836Z,81.40
2018-09-28T13:33:18.588Z,81.10
2018-09-28T13:35:47.322Z,81.70
2018-09-28T13:38:16.007Z,81.00
2018-09-28T13:40:44.839Z,80.10
2018-09-28T13:43:13.471Z,81.20
2018-09-28T13:45:42.203Z,80.60
2018-09-28T13:48:11.005Z,80.40
2018-09-28T13:50:39.784Z,81.20
2018-09-28T13:53:09.093Z,80.40
2018-09-28T13:55:38.016Z,81.20
2018-09-28T13:58:07.572Z,80.50
2018-09-28T14:00:36.370Z,81.50
2018-09-28T14:03:05.388Z,83.20
2018-09-28T14:05:34.199Z,81.40
2018-09-28T14:08:07.959Z,81.10
2018-09-28T14:10:36.720Z,80.60
2018-09-28T14:13:05.463Z,81.10
2018-09-28T14:15:36.308Z,80.60
2018-09-28T14:18:18.881Z,81.10
2018-09-28T14:20:47.669Z,81.10
2018-09-28T14:23:16.446Z,83.20
2018-09-28T14:25:45.611Z,82.60
2018-09-28T14:28:14.283Z,83.00
2018-09-28T14:30:43.251Z,83.60
2018-09-28T14:33:11.847Z,83.60
2018-09-28T14:35:40.562Z,83.30
2018-09-28T14:38:09.303Z,82.80
2018-09-28T14:40:37.967Z,83.20
2018-09-28T14:45:35.072Z,80.70
2018-09-28T14:48:03.792Z,81.80
2018-09-28T14:50:32.493Z,82.00
2018-09-28T14:53:01.073Z,81.40
2018-09-28T14:55:29.723Z,80.90
2018-09-28T14:57:58.495Z,82.10
2018-09-28T15:00:27.206Z,82.30
2018-09-28T15:02:55.905Z,82.30
2018-09-28T15:05:24.579Z,81.80
2018-09-28T15:07:53.590Z,82.40
2018-09-28T15:10:22.406Z,82.50
2018-09-28T15:12:50.994Z,82.30
2018-09-28T15:15:19.692Z,82.60
2018-09-28T15:17:48.275Z,83.00
2018-09-28T15:20:16.971Z,83.00
2018-09-28T15:22:46.007Z,83.00
2018-09-28T15:25:14.759Z,82.70
2018-09-28T15:27:43.398Z,83.40
2018-09-28T15:30:12.156Z,83.90
2018-09-28T15:32:40.879Z,84.40
2018-09-28T15:35:09.598Z,86.00
2018-09-28T15:37:38.441Z,87.00
2018-09-28T15:40:07.415Z,87.30
2018-09-28T15:42:41.103Z,86.90
2018-09-28T15:45:09.794Z,87.90
2018-09-28T15:47:43.601Z,89.80
2018-09-28T15:50:12.495Z,89.40
2018-09-28T15:52:41.165Z,88.70
2018-09-28T15:55:09.895Z,88.80
2018-09-28T15:57:38.901Z,89.80
2018-09-28T16:00:08.204Z,90.40
2018-09-28T16:02:37.006Z,89.80
2018-09-28T16:05:05.806Z,90.10
2018-09-28T16:07:34.704Z,90.10
2018-09-28T16:10:03.483Z,90.30
2018-09-28T16:12:32.154Z,90.50
2018-09-28T16:15:00.839Z,91.20
2018-09-28T16:17:29.663Z,90.60
2018-09-28T16:19:58.610Z,91.00
2018-09-28T16:22:27.343Z,90.60
2018-09-28T16:24:56.073Z,90.50
2018-09-28T16:27:25.135Z,90.90
2018-09-28T16:29:53.874Z,90.80
2018-09-28T16:32:22.936Z,90.70
2018-09-28T16:34:51.859Z,91.90
2018-09-28T16:37:21.438Z,91.90
2018-09-28T16:39:50.284Z,92.20
2018-09-28T16:42:19.030Z,92.80
2018-09-28T16:44:47.760Z,92.90
2018-09-28T16:47:16.393Z,93.70
2018-09-28T16:49:45.031Z,94.30
2018-09-28T16:52:13.735Z,94.20
2018-09-28T16:54:42.507Z,94.60
2018-09-28T16:57:16.728Z,94.60
2018-09-28T16:59:45.601Z,95.00
2018-09-28T17:02:14.434Z,95.20
2018-09-28T17:04:43.582Z,95.50
2018-09-28T17:07:21.853Z,95.70
2018-09-28T17:09:50.494Z,96.20
2018-09-28T17:12:19.671Z,95.90
2018-09-28T17:14:48.467Z,96.70
2018-09-28T17:17:17.225Z,97.00
2018-09-28T17:19:46.003Z,96.60
2018-09-28T17:22:14.782Z,96.90
2018-09-28T17:24:43.484Z,97.00
2018-09-28T17:27:12.255Z,96.70
2018-09-28T17:29:40.998Z,97.40
2018-09-28T17:32:09.674Z,97.60
2018-09-28T17:34:38.419Z,97.50
2018-09-28T17:37:07.147Z,97.50
2018-09-28T17:39:35.861Z,97.70
2018-09-28T17:42:04.526Z,98.00
2018-09-28T17:44:33.134Z,98.20
2018-09-28T17:47:01.794Z,98.50
2018-09-28T17:49:30.520Z,98.30
2018-09-28T17:51:59.135Z,98.30
2018-09-28T17:54:27.870Z,98.80
2018-09-28T17:56:56.526Z,99.00
2018-09-28T17:59:25.236Z,98.80
2018-09-28T18:01:53.916Z,99.20
2018-09-28T18:04:22.594Z,99.60
2018-09-28T18:06:51.269Z,99.30
2018-09-28T18:09:19.931Z,99.10
2018-09-28T18:11:48.657Z,99.50
2018-09-28T18:14:17.354Z,99.80
2018-09-28T18:16:46.256Z,99.90
2018-09-28T18:19:14.931Z,99.70
2018-09-28T18:21:43.596Z,99.90
2018-09-28T18:24:12.222Z,99.90
2018-09-28T18:26:41.063Z,99.90
2018-09-28T18:29:09.738Z,99.90
2018-09-28T18:31:38.488Z,99.80
2018-09-28T18:34:07.227Z,99.90
2018-09-28T18:36:35.914Z,99.90
2018-09-28T18:39:06.340Z,99.80
2018-09-28T18:41:35.027Z,99.90
2018-09-28T18:44:03.919Z,99.90
2018-09-28T18:46:32.562Z,99.90
2018-09-28T18:49:01.414Z,99.90
2018-09-28T18:51:30.144Z,99.90
2018-09-28T18:53:58.734Z,99.90
2018-09-28T18:56:27.442Z,99.90
2018-09-28T18:58:56.120Z,99.90
2018-09-28T19:01:24.822Z,99.90
2018-09-28T19:03:54.309Z,99.90
2018-09-28T19:06:23.099Z,99.90
2018-09-28T19:08:51.871Z,99.90
2018-09-28T19:11:20.573Z,99.90
2018-09-28T19:13:49.262Z,99.90
2018-09-28T19:16:18.239Z,99.90
2018-09-28T19:18:46.894Z,99.90
2018-09-28T19:21:15.575Z,99.90
2018-09-28T19:23:44.288Z,99.90
2018-09-28T19:26:12.938Z,99.90
2018-09-28T19:28:41.670Z,99.90
2018-09-28T19:31:10.399Z,99.90
2018-09-28T19:33:39.054Z,99.90
2018-09-28T19:36:07.883Z,99.90
2018-09-28T19:38:36.821Z,99.90
2018-09-28T19:41:05.491Z,99.90
2018-09-28T19:43:34.187Z,99.90
2018-09-28T19:46:02.923Z,99.90
2018-09-28T19:48:31.587Z,99.90
2018-09-28T19:51:00.206Z,99.90
2018-09-28T19:53:28.916Z,99.90
2018-09-28T19:55:57.600Z,99.90
2018-09-28T19:58:26.432Z,99.90
2018-09-28T20:00:55.112Z,99.90
2018-09-28T20:03:23.969Z,99.90
2018-09-28T20:05:52.673Z,99.90
2018-09-28T20:08:21.406Z,99.90
2018-09-28T20:10:50.108Z,99.90
2018-09-28T20:13:18.773Z,99.90
2018-09-28T20:15:47.478Z,99.90
2018-09-28T20:18:16.156Z,99.90
2018-09-28T20:20:45.007Z,99.90
2018-09-28T20:23:13.671Z,99.90
2018-09-28T20:25:42.301Z,99.90
2018-09-28T20:28:11.006Z,99.90
2018-09-28T20:30:39.663Z,99.90
2018-09-28T20:33:08.488Z,99.90
2018-09-28T20:35:37.119Z,99.90
2018-09-28T20:38:06.302Z,99.90
2018-09-28T20:40:35.088Z,99.90
2018-09-28T20:43:03.776Z,99.90
2018-09-28T20:45:32.468Z,99.90
2018-09-28T20:48:01.146Z,99.90
2018-09-28T20:50:29.734Z,99.90
2018-09-28T20:52:58.830Z,99.90
2018-09-28T20:55:27.567Z,99.90
2018-09-28T20:57:56.356Z,99.90
2018-09-28T21:00:25.107Z,99.90
2018-09-28T21:02:53.723Z,99.90
2018-09-28T21:05:22.365Z,99.90
2018-09-28T21:07:51.302Z,99.90
2018-09-28T21:10:20.007Z,99.90
2018-09-28T21:12:48.703Z,99.90
2018-09-28T21:15:17.663Z,99.90
2018-09-28T21:17:46.391Z,99.90
2018-09-28T21:20:15.142Z,99.90
2018-09-28T21:22:43.890Z,99.90
2018-09-28T21:25:12.542Z,99.90
2018-09-28T21:27:41.215Z,99.90
2018-09-28T21:30:10.003Z,99.90
2018-09-28T21:32:38.674Z,99.90
2018-09-28T21:35:07.357Z,99.90
2018-09-28T21:37:36.023Z,99.90
2018-09-28T21:40:04.723Z,99.90
2018-09-28T21:42:33.375Z,99.90
2018-09-28T21:45:02.034Z,99.90
2018-09-28T21:47:30.732Z,99.90
2018-09-28T21:49:59.402Z,99.90
2018-09-28T21:52:28.062Z,99.90
2018-09-28T21:54:56.662Z,99.90
2018-09-28T21:57:25.568Z,99.90
2018-09-28T21:59:54.219Z,99.90
2018-09-28T22:02:22.815Z,99.90
2018-09-28T22:04:51.541Z,99.90
2018-09-28T22:07:20.188Z,99.90
2018-09-28T22:09:48.898Z,99.90
2018-09-28T22:12:17.566Z,99.90
2018-09-28T22:14:46.214Z,99.90
2018-09-28T22:17:15.125Z,99.90
2018-09-28T22:19:43.796Z,99.90
2018-09-28T22:22:12.416Z,99.90
2018-09-28T22:24:41.030Z,99.90
2018-09-28T22:27:09.839Z,99.90
2018-09-28T22:29:38.546Z,99.90
2018-09-28T22:32:07.273Z,99.90
2018-09-28T22:34:35.846Z,99.90
2018-09-28T22:37:04.506Z,99.90
2018-09-28T22:39:33.183Z,99.90
2018-09-28T22:42:01.846Z,99.90
2018-09-28T22:44:30.560Z,99.90
2018-09-28T22:46:59.255Z,99.90
2018-09-28T22:49:27.910Z,99.90
2018-09-28T22:51:56.602Z,99.90
2018-09-28T22:54:25.327Z,99.90
2018-09-28T22:56:53.974Z,99.90
2018-09-28T22:59:22.643Z,99.90
2018-09-28T23:01:51.338Z,99.90
2018-09-28T23:04:20.010Z,99.90
2018-09-28T23:06:48.919Z,99.90
2018-09-28T23:09:17.587Z,99.90
2018-09-28T23:11:46.346Z,99.90
2018-09-28T23:14:15.019Z,99.90
2018-09-28T23:16:43.849Z,99.90
2018-09-28T23:19:12.523Z,99.90
2018-09-28T23:21:41.205Z,99.90
2018-09-28T23:24:09.800Z,99.90
2018-09-28T23:26:38.531Z,99.90
2018-09-28T23:29:07.222Z,99.90
2018-09-28T23:31:35.880Z,99.90
2018-09-28T23:34:04.488Z,99.90
2018-09-28T23:36:33.151Z,99.90
2018-09-28T23:39:01.778Z,99.90
2018-09-28T23:41:30.417Z,99.90
2018-09-28T23:43:59.026Z,99.90
2018-09-28T23:46:27.694Z,99.90
2018-09-28T23:48:56.324Z,99.90
2018-09-28T23:51:25.051Z,99.90
2018-09-28T23:53:53.719Z,99.90
2018-09-28T23:56:22.530Z,99.90
2018-09-28T23:58:51.138Z,99.90
